Time;durP1;ratioP1;P1;durP2;ratioP2;P2;SDS_P1;SDS_P2;PMS_P1;PMS_P2;Temp;Humidity;BMP_temperature;BMP_pressure;BME280_temperature;BME280_humidity;BME280_pressure;Samples;Min_cycle;Max_cycle;Signal;HPM_P1;HPM_P2
2023/08/27 00:01:58;;;;;;;5.30;2.30;;;;;;;;;;778304;178;817172;-62
2023/08/27 00:04:25;;;;;;;3.27;1.77;;;;;;;;;;769359;177;820216;-68
2023/08/27 00:06:50;;;;;;;5.50;1.90;;;;;;;;;;777330;179;817498;-68
2023/08/27 00:09:16;;;;;;;4.53;2.00;;;;;;;;;;778151;177;950165;-67
2023/08/27 00:11:42;;;;;;;8.53;2.00;;;;;;;;;;765617;178;816777;-68
2023/08/27 00:14:07;;;;;;;5.83;2.07;;;;;;;;;;776211;177;816761;-68
2023/08/27 00:16:33;;;;;;;12.83;2.07;;;;;;;;;;772977;181;876026;-68
2023/08/27 00:18:59;;;;;;;4.37;2.33;;;;;;;;;;778633;181;920316;-68
2023/08/27 00:21:25;;;;;;;4.27;2.20;;;;;;;;;;774914;181;918368;-69
2023/08/27 00:23:51;;;;;;;5.87;2.27;;;;;;;;;;763896;182;918056;-62
2023/08/27 00:26:17;;;;;;;3.23;1.70;;;;;;;;;;768604;180;919121;-62
2023/08/27 00:28:42;;;;;;;7.83;2.10;;;;;;;;;;774625;179;914695;-61
2023/08/27 00:31:08;;;;;;;4.17;1.80;;;;;;;;;;771985;178;934842;-61
2023/08/27 00:33:35;;;;;;;4.75;2.53;;;;;;;;;;774849;181;920220;-68
2023/08/27 00:36:00;;;;;;;6.80;2.20;;;;;;;;;;771787;178;921632;-61
2023/08/27 00:38:26;;;;;;;4.50;1.60;;;;;;;;;;773110;177;919227;-61
2023/08/27 00:40:52;;;;;;;5.43;2.50;;;;;;;;;;772354;179;918867;-67
2023/08/27 00:43:18;;;;;;;6.30;2.23;;;;;;;;;;767038;182;1022148;-68
2023/08/27 00:45:43;;;;;;;4.17;1.77;;;;;;;;;;770179;181;919445;-61
2023/08/27 00:48:09;;;;;;;3.77;2.00;;;;;;;;;;770010;180;926692;-67
2023/08/27 00:50:35;;;;;;;10.03;2.00;;;;;;;;;;780005;180;915899;-61
2023/08/27 00:53:01;;;;;;;6.40;2.42;;;;;;;;;;772960;177;900124;-68
2023/08/27 00:55:27;;;;;;;5.47;2.13;;;;;;;;;;774224;180;819833;-61
2023/08/27 00:57:53;;;;;;;4.30;1.90;;;;;;;;;;780959;177;919483;-61
2023/08/27 01:00:19;;;;;;;6.77;2.47;;;;;;;;;;762455;182;918834;-60
2023/08/27 01:02:46;;;;;;;10.53;2.13;;;;;;;;;;767182;178;918715;-62
2023/08/27 01:05:11;;;;;;;9.63;2.23;;;;;;;;;;780446;178;919860;-68
2023/08/27 01:07:40;;;;;;;4.67;1.70;;;;;;;;;;774091;180;919422;-68
2023/08/27 01:10:16;;;;;;;10.03;2.10;;;;;;;;;;772380;178;922071;-61
2023/08/27 01:12:42;;;;;;;9.40;1.73;;;;;;;;;;773812;180;937306;-62
2023/08/27 01:15:08;;;;;;;6.93;1.77;;;;;;;;;;773902;180;927014;-62
2023/08/27 01:17:34;;;;;;;6.73;1.80;;;;;;;;;;773092;177;918565;-63
2023/08/27 01:20:00;;;;;;;7.03;1.80;;;;;;;;;;772281;180;821442;-62
2023/08/27 01:22:26;;;;;;;6.97;1.77;;;;;;;;;;770835;181;917522;-62
2023/08/27 01:24:52;;;;;;;7.40;2.77;;;;;;;;;;780048;179;815141;-71
2023/08/27 01:27:19;;;;;;;6.63;2.27;;;;;;;;;;771036;181;818424;-69
2023/08/27 01:29:45;;;;;;;6.07;1.90;;;;;;;;;;771043;180;919530;-63
2023/08/27 01:32:15;;;;;;;4.27;2.17;;;;;;;;;;779200;180;919195;-69
2023/08/27 01:34:41;;;;;;;6.77;2.87;;;;;;;;;;769050;181;917525;-62
2023/08/27 01:37:07;;;;;;;4.20;2.37;;;;;;;;;;764835;180;914952;-62
2023/08/27 01:39:33;;;;;;;5.47;2.10;;;;;;;;;;769155;177;819186;-63
2023/08/27 01:41:59;;;;;;;6.00;1.63;;;;;;;;;;780280;177;922997;-63
2023/08/27 01:44:25;;;;;;;4.65;2.08;;;;;;;;;;770739;179;918966;-69
2023/08/27 01:46:50;;;;;;;7.23;2.20;;;;;;;;;;756038;182;920461;-69
2023/08/27 01:49:16;;;;;;;4.03;1.67;;;;;;;;;;769725;180;922247;-69
2023/08/27 01:51:42;;;;;;;4.60;2.13;;;;;;;;;;773825;177;920534;-69
2023/08/27 01:54:08;;;;;;;4.57;2.50;;;;;;;;;;773418;176;919194;-62
2023/08/27 01:56:34;;;;;;;14.70;2.60;;;;;;;;;;775237;179;916863;-62
2023/08/27 01:59:00;;;;;;;3.20;1.60;;;;;;;;;;772582;179;921883;-61
2023/08/27 02:01:25;;;;;;;5.33;2.17;;;;;;;;;;770666;179;919727;-62
2023/08/27 02:03:51;;;;;;;5.30;1.83;;;;;;;;;;773886;177;919795;-68
2023/08/27 02:06:17;;;;;;;5.00;1.87;;;;;;;;;;773775;180;816618;-69
2023/08/27 02:08:43;;;;;;;3.62;1.55;;;;;;;;;;767144;181;816915;-62
2023/08/27 02:11:09;;;;;;;10.73;2.23;;;;;;;;;;770257;181;920574;-63
2023/08/27 02:13:35;;;;;;;4.50;2.17;;;;;;;;;;781296;181;817312;-63
2023/08/27 02:16:01;;;;;;;10.03;2.30;;;;;;;;;;776245;181;918176;-62
2023/08/27 02:18:26;;;;;;;7.00;2.30;;;;;;;;;;769978;179;919941;-68
2023/08/27 02:20:52;;;;;;;5.93;2.35;;;;;;;;;;774686;180;904475;-63
2023/08/27 02:23:18;;;;;;;5.83;1.80;;;;;;;;;;777783;177;818391;-62
2023/08/27 02:25:44;;;;;;;3.53;2.03;;;;;;;;;;779487;178;817584;-69
2023/08/27 02:28:10;;;;;;;5.43;2.10;;;;;;;;;;767719;181;913642;-69
2023/08/27 02:30:36;;;;;;;3.43;1.90;;;;;;;;;;774594;180;811881;-69
2023/08/27 02:33:01;;;;;;;3.43;2.30;;;;;;;;;;765999;180;911551;-70
2023/08/27 02:35:27;;;;;;;5.07;2.20;;;;;;;;;;774218;180;935162;-63
2023/08/27 02:37:53;;;;;;;7.90;2.27;;;;;;;;;;775031;180;917579;-68
2023/08/27 02:40:19;;;;;;;4.77;2.03;;;;;;;;;;771664;180;920474;-69
2023/08/27 02:42:45;;;;;;;7.63;2.10;;;;;;;;;;775952;181;817091;-63
2023/08/27 02:45:11;;;;;;;5.23;2.03;;;;;;;;;;781005;180;813252;-63
2023/08/27 02:47:36;;;;;;;8.47;2.47;;;;;;;;;;766387;181;815152;-68
2023/08/27 02:50:03;;;;;;;4.87;2.43;;;;;;;;;;766715;181;919218;-69
2023/08/27 02:52:28;;;;;;;5.17;2.63;;;;;;;;;;778688;181;920755;-69
2023/08/27 02:54:54;;;;;;;4.50;2.60;;;;;;;;;;773100;181;919598;-63
2023/08/27 02:57:20;;;;;;;5.30;2.63;;;;;;;;;;771396;181;919655;-69
2023/08/27 02:59:46;;;;;;;5.73;3.00;;;;;;;;;;772757;178;921842;-68
2023/08/27 03:02:11;;;;;;;8.00;2.50;;;;;;;;;;780420;180;919064;-62
2023/08/27 03:04:37;;;;;;;4.10;2.17;;;;;;;;;;774499;179;923604;-66
2023/08/27 03:07:03;;;;;;;9.50;2.33;;;;;;;;;;759362;184;918515;-68
2023/08/27 03:09:29;;;;;;;5.70;2.70;;;;;;;;;;775017;177;917000;-68
2023/08/27 03:11:55;;;;;;;7.17;2.47;;;;;;;;;;776942;178;921291;-68
2023/08/27 03:14:21;;;;;;;4.18;2.95;;;;;;;;;;767861;180;1122796;-62
2023/08/27 03:16:47;;;;;;;4.67;2.67;;;;;;;;;;776324;181;918703;-68
2023/08/27 03:19:12;;;;;;;5.87;2.30;;;;;;;;;;777609;179;918306;-68
2023/08/27 03:21:38;;;;;;;6.40;2.50;;;;;;;;;;775757;180;918669;-68
2023/08/27 03:24:04;;;;;;;8.87;3.00;;;;;;;;;;772691;179;909027;-68
2023/08/27 03:26:30;;;;;;;7.53;2.60;;;;;;;;;;776483;181;918424;-62
2023/08/27 03:28:56;;;;;;;8.40;2.30;;;;;;;;;;774323;178;918341;-63
2023/08/27 03:31:22;;;;;;;6.32;2.33;;;;;;;;;;771528;181;919274;-68
2023/08/27 03:33:47;;;;;;;11.30;2.93;;;;;;;;;;778148;178;917837;-69
2023/08/27 03:36:13;;;;;;;4.57;3.00;;;;;;;;;;778584;180;917199;-68
2023/08/27 03:38:39;;;;;;;16.33;2.60;;;;;;;;;;776923;180;818045;-63
2023/08/27 03:41:05;;;;;;;6.23;2.17;;;;;;;;;;778659;180;919600;-62
2023/08/27 03:43:31;;;;;;;4.90;2.43;;;;;;;;;;772739;180;919528;-62
2023/08/27 03:45:57;;;;;;;5.13;2.27;;;;;;;;;;772503;180;919134;-62
2023/08/27 03:48:23;;;;;;;5.12;2.60;;;;;;;;;;778455;180;919617;-67
2023/08/27 03:50:49;;;;;;;5.17;2.27;;;;;;;;;;768914;181;924262;-68
2023/08/27 03:53:15;;;;;;;6.33;2.40;;;;;;;;;;765438;181;919527;-68
2023/08/27 03:55:41;;;;;;;3.57;2.13;;;;;;;;;;769816;181;919432;-62
2023/08/27 03:58:07;;;;;;;5.40;2.43;;;;;;;;;;777973;180;919817;-67
2023/08/27 04:00:33;;;;;;;5.37;2.07;;;;;;;;;;769752;180;919488;-68
2023/08/27 04:02:58;;;;;;;10.33;2.90;;;;;;;;;;774677;178;918416;-62
2023/08/27 04:05:24;;;;;;;11.60;2.97;;;;;;;;;;781459;180;818420;-62
2023/08/27 04:07:50;;;;;;;4.30;2.47;;;;;;;;;;772807;177;918177;-67
2023/08/27 04:10:16;;;;;;;7.13;2.90;;;;;;;;;;755925;183;920610;-67
2023/08/27 04:12:42;;;;;;;5.83;2.87;;;;;;;;;;775240;181;816956;-67
2023/08/27 04:15:08;;;;;;;8.33;2.60;;;;;;;;;;774710;178;919655;-62
2023/08/27 04:17:34;;;;;;;13.63;3.87;;;;;;;;;;771989;180;919222;-61
2023/08/27 04:20:00;;;;;;;3.70;2.50;;;;;;;;;;774983;179;937116;-62
2023/08/27 04:22:25;;;;;;;9.70;2.70;;;;;;;;;;780712;179;874691;-61
2023/08/27 04:24:51;;;;;;;11.53;3.10;;;;;;;;;;776672;177;915854;-61
2023/08/27 04:27:17;;;;;;;7.13;2.50;;;;;;;;;;774985;179;919723;-67
2023/08/27 04:29:43;;;;;;;10.00;2.70;;;;;;;;;;776959;180;919873;-67
2023/08/27 04:32:09;;;;;;;8.00;2.40;;;;;;;;;;767121;180;918927;-62
2023/08/27 04:34:35;;;;;;;5.50;2.17;;;;;;;;;;763948;180;926624;-67
2023/08/27 04:37:03;;;;;;;12.80;2.63;;;;;;;;;;780726;179;915963;-62
2023/08/27 04:39:26;;;;;;;3.50;2.20;;;;;;;;;;773993;179;819418;-62
2023/08/27 04:41:52;;;;;;;4.73;2.30;;;;;;;;;;775624;180;921104;-62
2023/08/27 04:44:18;;;;;;;7.07;2.40;;;;;;;;;;775450;180;817915;-68
2023/08/27 04:46:44;;;;;;;9.20;3.33;;;;;;;;;;772065;181;833457;-68
2023/08/27 04:49:10;;;;;;;6.63;3.40;;;;;;;;;;768829;180;919356;-68
2023/08/27 04:51:36;;;;;;;7.35;3.47;;;;;;;;;;775726;177;919309;-62
2023/08/27 04:54:01;;;;;;;6.27;4.20;;;;;;;;;;774343;180;816507;-61
2023/08/27 04:56:27;;;;;;;7.53;4.20;;;;;;;;;;771928;181;919498;-62
2023/08/27 04:58:53;;;;;;;7.97;4.67;;;;;;;;;;772377;181;938069;-70
2023/08/27 05:01:19;;;;;;;7.73;4.10;;;;;;;;;;778641;178;809312;-67
2023/08/27 05:03:45;;;;;;;7.40;3.80;;;;;;;;;;768045;180;926988;-67
2023/08/27 05:06:11;;;;;;;13.80;4.33;;;;;;;;;;774338;180;918642;-68
2023/08/27 05:08:36;;;;;;;6.73;3.30;;;;;;;;;;778272;177;915696;-61
2023/08/27 05:11:02;;;;;;;10.40;3.87;;;;;;;;;;777126;180;816439;-62
2023/08/27 05:13:28;;;;;;;5.93;3.03;;;;;;;;;;774371;181;820940;-67
2023/08/27 05:15:54;;;;;;;7.40;3.97;;;;;;;;;;777069;180;819257;-62
2023/08/27 05:18:20;;;;;;;6.77;2.80;;;;;;;;;;775224;180;901013;-67
2023/08/27 05:20:46;;;;;;;4.87;3.00;;;;;;;;;;759445;179;920674;-68
2023/08/27 05:23:12;;;;;;;5.83;3.40;;;;;;;;;;773557;179;919448;-62
2023/08/27 05:25:37;;;;;;;6.70;3.07;;;;;;;;;;779003;180;918479;-68
2023/08/27 05:28:03;;;;;;;6.43;3.63;;;;;;;;;;773260;177;905580;-70
2023/08/27 05:30:29;;;;;;;8.25;3.03;;;;;;;;;;772524;178;927559;-68
2023/08/27 05:32:55;;;;;;;11.53;3.00;;;;;;;;;;780358;179;919421;-61
2023/08/27 05:35:21;;;;;;;6.80;3.00;;;;;;;;;;776243;179;920375;-66
2023/08/27 05:37:47;;;;;;;9.60;2.73;;;;;;;;;;776303;180;870105;-62
2023/08/27 05:40:13;;;;;;;4.97;2.70;;;;;;;;;;762903;184;922618;-69
2023/08/27 05:42:38;;;;;;;4.43;2.80;;;;;;;;;;773358;180;912056;-68
2023/08/27 05:45:05;;;;;;;5.73;2.90;;;;;;;;;;768340;181;923387;-60
2023/08/27 05:47:31;;;;;;;6.20;3.47;;;;;;;;;;772593;178;918467;-61
2023/08/27 05:49:56;;;;;;;10.43;2.63;;;;;;;;;;779529;180;818386;-68
2023/08/27 05:52:22;;;;;;;5.00;2.77;;;;;;;;;;774518;178;819618;-67
2023/08/27 05:54:48;;;;;;;3.83;2.70;;;;;;;;;;775567;177;917896;-60
2023/08/27 05:57:14;;;;;;;4.40;2.70;;;;;;;;;;778288;180;816864;-67
2023/08/27 05:59:40;;;;;;;7.13;3.13;;;;;;;;;;774748;178;915973;-66
2023/08/27 06:02:06;;;;;;;5.70;2.92;;;;;;;;;;766176;180;981122;-61
2023/08/27 06:04:32;;;;;;;6.75;2.83;;;;;;;;;;771763;181;921322;-67
2023/08/27 06:06:58;;;;;;;4.20;2.50;;;;;;;;;;774094;178;918927;-61
2023/08/27 06:09:24;;;;;;;5.70;2.93;;;;;;;;;;773754;180;928537;-61
2023/08/27 06:11:49;;;;;;;5.20;3.00;;;;;;;;;;770354;180;898712;-67
2023/08/27 06:14:15;;;;;;;5.43;4.03;;;;;;;;;;774988;177;923037;-67
2023/08/27 06:16:41;;;;;;;6.97;3.33;;;;;;;;;;757588;182;919092;-61
2023/08/27 06:19:07;;;;;;;6.43;3.33;;;;;;;;;;772702;181;918197;-61
2023/08/27 06:21:33;;;;;;;6.97;3.43;;;;;;;;;;773625;180;918562;-67
2023/08/27 06:23:59;;;;;;;5.50;3.40;;;;;;;;;;768080;181;817275;-60
2023/08/27 06:26:24;;;;;;;5.40;3.80;;;;;;;;;;773086;180;918434;-62
2023/08/27 06:28:50;;;;;;;4.90;3.37;;;;;;;;;;778616;181;816847;-67
2023/08/27 06:31:16;;;;;;;4.50;3.67;;;;;;;;;;769670;178;919330;-68
2023/08/27 06:33:42;;;;;;;7.80;2.90;;;;;;;;;;771139;181;914715;-61
2023/08/27 06:36:08;;;;;;;6.90;3.80;;;;;;;;;;773832;180;919651;-66
2023/08/27 06:38:34;;;;;;;8.73;5.10;;;;;;;;;;777741;180;817300;-66
2023/08/27 06:41:00;;;;;;;7.30;3.83;;;;;;;;;;771611;180;821496;-62
2023/08/27 06:43:25;;;;;;;5.55;4.28;;;;;;;;;;764503;178;919208;-63
2023/08/27 06:45:51;;;;;;;5.67;3.90;;;;;;;;;;774093;180;910659;-61
2023/08/27 06:48:17;;;;;;;5.73;4.33;;;;;;;;;;774059;177;918393;-67
2023/08/27 06:50:43;;;;;;;8.53;4.93;;;;;;;;;;769091;180;941003;-67
2023/08/27 06:53:09;;;;;;;7.27;4.53;;;;;;;;;;779395;180;816991;-60
2023/08/27 06:55:35;;;;;;;7.47;4.37;;;;;;;;;;771927;178;918161;-61
2023/08/27 06:58:00;;;;;;;8.00;6.00;;;;;;;;;;776793;180;626953;-61
2023/08/27 07:00:26;;;;;;;8.07;5.83;;;;;;;;;;774245;178;919304;-67
2023/08/27 07:02:52;;;;;;;9.53;5.10;;;;;;;;;;778442;180;906559;-66
2023/08/27 07:05:18;;;;;;;6.90;4.90;;;;;;;;;;772703;180;1022317;-66
2023/08/27 07:07:44;;;;;;;6.90;6.00;;;;;;;;;;768169;179;912190;-61
2023/08/27 07:10:10;;;;;;;10.10;6.40;;;;;;;;;;779568;178;825115;-66
2023/08/27 07:12:35;;;;;;;7.67;5.00;;;;;;;;;;769074;180;918227;-66
2023/08/27 07:15:01;;;;;;;9.13;6.70;;;;;;;;;;774275;179;920153;-61
2023/08/27 07:17:27;;;;;;;10.60;6.20;;;;;;;;;;764955;182;919648;-66
2023/08/27 07:19:53;;;;;;;7.73;5.77;;;;;;;;;;772364;180;919862;-67
2023/08/27 07:22:19;;;;;;;8.73;7.20;;;;;;;;;;766250;181;919091;-60
2023/08/27 07:24:45;;;;;;;7.43;6.27;;;;;;;;;;774910;180;945638;-60
2023/08/27 07:27:11;;;;;;;9.23;6.50;;;;;;;;;;774976;179;821511;-66
2023/08/27 07:29:36;;;;;;;8.90;6.90;;;;;;;;;;771783;178;916911;-68
2023/08/27 07:32:03;;;;;;;7.50;5.77;;;;;;;;;;771487;180;921525;-67
2023/08/27 07:34:28;;;;;;;9.57;6.10;;;;;;;;;;778695;180;819427;-61
2023/08/27 07:36:54;;;;;;;7.40;6.03;;;;;;;;;;772259;180;818830;-60
2023/08/27 07:39:20;;;;;;;11.40;6.50;;;;;;;;;;773918;180;846262;-59
2023/08/27 07:41:46;;;;;;;6.50;5.47;;;;;;;;;;781710;177;921536;-66
2023/08/27 07:44:12;;;;;;;9.03;5.83;;;;;;;;;;771758;180;860704;-59
2023/08/27 07:46:38;;;;;;;8.20;6.10;;;;;;;;;;776501;180;629803;-59
2023/08/27 07:49:03;;;;;;;8.33;5.90;;;;;;;;;;781365;177;623624;-60
2023/08/27 07:51:30;;;;;;;7.67;6.80;;;;;;;;;;773505;180;917461;-64
2023/08/27 07:53:56;;;;;;;9.03;7.10;;;;;;;;;;774462;180;916483;-59
2023/08/27 07:56:21;;;;;;;10.00;7.30;;;;;;;;;;777090;179;919389;-64
2023/08/27 07:58:47;;;;;;;8.60;7.30;;;;;;;;;;774868;180;919542;-65
2023/08/27 08:01:13;;;;;;;8.23;7.43;;;;;;;;;;774770;177;917839;-64
2023/08/27 08:03:39;;;;;;;8.30;7.40;;;;;;;;;;776485;181;817625;-65
2023/08/27 08:06:04;;;;;;;12.47;7.80;;;;;;;;;;778420;181;907117;-59
2023/08/27 08:08:30;;;;;;;7.83;7.03;;;;;;;;;;769310;180;910249;-58
2023/08/27 08:10:56;;;;;;;7.40;6.57;;;;;;;;;;774142;178;915671;-59
2023/08/27 08:13:22;;;;;;;9.82;7.68;;;;;;;;;;777209;177;922224;-58
2023/08/27 08:15:48;;;;;;;9.20;6.63;;;;;;;;;;775044;177;917065;-64
2023/08/27 08:18:14;;;;;;;8.80;7.00;;;;;;;;;;773346;179;906401;-64
2023/08/27 08:20:39;;;;;;;7.00;6.30;;;;;;;;;;775053;180;919120;-58
2023/08/27 08:23:05;;;;;;;11.53;7.60;;;;;;;;;;775892;180;922123;-57
2023/08/27 08:25:33;;;;;;;8.30;7.30;;;;;;;;;;773529;177;918539;-58
2023/08/27 08:27:57;;;;;;;7.57;6.13;;;;;;;;;;770201;180;919402;-58
2023/08/27 08:30:23;;;;;;;9.67;7.60;;;;;;;;;;778542;180;919246;-63
2023/08/27 08:32:49;;;;;;;9.27;6.70;;;;;;;;;;768897;180;916677;-64
2023/08/27 08:35:14;;;;;;;12.90;8.60;;;;;;;;;;773753;180;906555;-58
2023/08/27 08:37:40;;;;;;;9.27;8.03;;;;;;;;;;778752;178;916672;-66
2023/08/27 08:40:07;;;;;;;10.80;8.67;;;;;;;;;;773854;178;887526;-64
2023/08/27 08:42:42;;;;;;;7.80;7.00;;;;;;;;;;772721;178;881688;-64
2023/08/27 08:45:09;;;;;;;8.60;7.13;;;;;;;;;;772941;180;924430;-65
2023/08/27 08:47:36;;;;;;;8.50;7.50;;;;;;;;;;775866;177;919072;-60
2023/08/27 08:50:02;;;;;;;8.80;7.07;;;;;;;;;;775131;179;919922;-68
2023/08/27 08:52:28;;;;;;;8.40;7.00;;;;;;;;;;775093;178;919526;-59
2023/08/27 08:54:53;;;;;;;9.20;7.07;;;;;;;;;;778977;181;918071;-59
2023/08/27 08:57:19;;;;;;;7.30;5.80;;;;;;;;;;769696;181;925319;-60
2023/08/27 08:59:45;;;;;;;6.77;5.90;;;;;;;;;;770140;181;915689;-59
2023/08/27 09:02:11;;;;;;;7.03;5.60;;;;;;;;;;773971;179;919360;-59
2023/08/27 09:04:37;;;;;;;6.60;5.87;;;;;;;;;;776155;180;922039;-63
2023/08/27 09:07:03;;;;;;;6.50;5.70;;;;;;;;;;774369;179;823014;-65
2023/08/27 09:09:29;;;;;;;6.10;5.20;;;;;;;;;;773402;180;920061;-58
2023/08/27 09:11:55;;;;;;;7.73;5.87;;;;;;;;;;779843;178;815475;-64
2023/08/27 09:14:20;;;;;;;9.67;6.37;;;;;;;;;;776270;180;916061;-59
2023/08/27 09:16:46;;;;;;;7.30;6.47;;;;;;;;;;775054;179;918078;-61
2023/08/27 09:19:12;;;;;;;8.10;6.23;;;;;;;;;;780913;180;815042;-64
2023/08/27 09:21:38;;;;;;;11.10;7.20;;;;;;;;;;770741;178;912152;-64
2023/08/27 09:24:04;;;;;;;8.30;7.10;;;;;;;;;;771868;177;1016857;-65
2023/08/27 09:26:30;;;;;;;8.10;7.00;;;;;;;;;;771858;179;926837;-59
2023/08/27 09:28:56;;;;;;;7.70;6.90;;;;;;;;;;763748;182;916588;-65
2023/08/27 09:31:37;;;;;;;8.30;6.73;;;;;;;;;;763198;181;918188;-65
2023/08/27 09:34:03;;;;;;;8.20;6.70;;;;;;;;;;773316;178;918103;-64
2023/08/27 09:36:28;;;;;;;10.17;7.13;;;;;;;;;;771617;178;919140;-60
2023/08/27 09:38:54;;;;;;;10.30;7.67;;;;;;;;;;780438;177;812040;-60
2023/08/27 09:41:20;;;;;;;9.10;7.10;;;;;;;;;;771410;181;922074;-60
2023/08/27 09:43:52;;;;;;;7.57;6.80;;;;;;;;;;771983;180;917453;-59
2023/08/27 09:46:17;;;;;;;9.90;7.20;;;;;;;;;;776204;181;814521;-59
2023/08/27 09:48:42;;;;;;;8.00;6.00;;;;;;;;;;772461;177;918541;-59
2023/08/27 09:51:09;;;;;;;8.93;7.00;;;;;;;;;;772100;181;918342;-67
2023/08/27 09:53:34;;;;;;;9.73;6.60;;;;;;;;;;769804;179;821704;-66
2023/08/27 09:56:02;;;;;;;7.70;6.33;;;;;;;;;;778982;177;894031;-59
2023/08/27 09:58:26;;;;;;;10.20;6.40;;;;;;;;;;770599;180;919226;-59
2023/08/27 10:00:59;;;;;;;7.60;6.20;;;;;;;;;;772234;180;920403;-66
2023/08/27 10:03:25;;;;;;;8.97;5.50;;;;;;;;;;774401;180;919555;-65
2023/08/27 10:05:50;;;;;;;8.17;6.63;;;;;;;;;;777450;180;920882;-66
2023/08/27 10:08:16;;;;;;;6.53;5.77;;;;;;;;;;771627;181;869933;-66
2023/08/27 10:10:42;;;;;;;7.70;6.80;;;;;;;;;;771892;180;918803;-66
2023/08/27 10:13:08;;;;;;;7.60;6.50;;;;;;;;;;769806;181;921098;-59
2023/08/27 10:15:36;;;;;;;7.70;6.37;;;;;;;;;;773260;181;919648;-64
2023/08/27 10:18:00;;;;;;;7.90;7.10;;;;;;;;;;774263;180;853814;-59
2023/08/27 10:20:26;;;;;;;6.80;5.83;;;;;;;;;;780191;180;870972;-68
2023/08/27 10:22:51;;;;;;;8.63;6.77;;;;;;;;;;772940;181;918972;-59
2023/08/27 10:25:17;;;;;;;9.30;6.50;;;;;;;;;;772964;180;918336;-59
2023/08/27 10:27:43;;;;;;;9.47;7.83;;;;;;;;;;779392;179;919648;-64
2023/08/27 10:30:09;;;;;;;9.60;6.57;;;;;;;;;;776498;178;918976;-58
2023/08/27 10:32:35;;;;;;;8.00;6.82;;;;;;;;;;775931;180;918521;-58
2023/08/27 10:35:01;;;;;;;8.50;7.23;;;;;;;;;;770043;179;919236;-60
2023/08/27 10:37:27;;;;;;;7.60;6.80;;;;;;;;;;774639;181;628298;-65
2023/08/27 10:39:53;;;;;;;8.07;6.77;;;;;;;;;;772213;180;624894;-59
2023/08/27 10:42:36;;;;;;;8.80;7.30;;;;;;;;;;777937;178;619790;-66
2023/08/27 10:45:08;;;;;;;10.20;8.60;;;;;;;;;;777824;180;633806;-66
2023/08/27 10:47:34;;;;;;;6.90;6.00;;;;;;;;;;776638;180;629221;-65
2023/08/27 10:50:00;;;;;;;7.30;6.30;;;;;;;;;;769043;179;633296;-59
2023/08/27 10:52:25;;;;;;;8.70;7.30;;;;;;;;;;771956;180;820566;-59
2023/08/27 10:54:57;;;;;;;11.83;9.00;;;;;;;;;;770446;180;920863;-66
2023/08/27 10:57:23;;;;;;;10.70;7.30;;;;;;;;;;780783;180;918313;-68
2023/08/27 10:59:49;;;;;;;10.77;7.87;;;;;;;;;;772403;179;919663;-66
2023/08/27 11:02:16;;;;;;;9.10;7.30;;;;;;;;;;773588;178;915961;-64
2023/08/27 11:04:43;;;;;;;8.87;7.97;;;;;;;;;;777529;180;919262;-56
2023/08/27 11:07:10;;;;;;;16.63;8.50;;;;;;;;;;771077;180;896781;-58
2023/08/27 11:09:36;;;;;;;11.23;7.93;;;;;;;;;;771237;178;919478;-57
2023/08/27 11:12:03;;;;;;;9.07;6.30;;;;;;;;;;772053;177;920496;-65
2023/08/27 11:14:27;;;;;;;8.00;7.13;;;;;;;;;;777193;179;940167;-58
2023/08/27 11:16:53;;;;;;;9.57;7.67;;;;;;;;;;774970;181;922565;-58
2023/08/27 11:19:25;;;;;;;8.70;7.70;;;;;;;;;;773792;180;916233;-64
2023/08/27 11:21:51;;;;;;;9.37;7.30;;;;;;;;;;776783;181;918864;-58
2023/08/27 11:24:17;;;;;;;8.80;7.90;;;;;;;;;;770478;180;919979;-65
2023/08/27 11:26:42;;;;;;;7.63;6.80;;;;;;;;;;768968;181;918450;-58
2023/08/27 11:29:08;;;;;;;10.50;8.40;;;;;;;;;;773397;178;915527;-64
2023/08/27 11:31:34;;;;;;;8.63;7.60;;;;;;;;;;773749;180;819129;-65
2023/08/27 11:34:00;;;;;;;10.20;7.67;;;;;;;;;;769202;180;918684;-63
2023/08/27 11:36:26;;;;;;;7.93;7.13;;;;;;;;;;771694;181;925557;-58
2023/08/27 11:38:52;;;;;;;8.03;7.20;;;;;;;;;;775893;180;920516;-57
2023/08/27 11:41:17;;;;;;;8.40;7.37;;;;;;;;;;763281;181;913854;-66
2023/08/27 11:43:43;;;;;;;8.20;7.40;;;;;;;;;;762844;180;918354;-58
2023/08/27 11:46:27;;;;;;;9.00;7.40;;;;;;;;;;775707;180;912675;-58
2023/08/27 11:48:53;;;;;;;10.57;7.97;;;;;;;;;;778491;179;915367;-66
2023/08/27 11:51:19;;;;;;;8.63;7.73;;;;;;;;;;775162;180;846475;-67
2023/08/27 11:53:44;;;;;;;8.17;7.33;;;;;;;;;;768343;180;916498;-65
2023/08/27 11:56:15;;;;;;;9.93;7.43;;;;;;;;;;770485;180;919783;-59
2023/08/27 11:58:40;;;;;;;8.83;7.93;;;;;;;;;;767694;181;946539;-58
2023/08/27 12:01:06;;;;;;;10.07;6.77;;;;;;;;;;762189;182;921522;-57
2023/08/27 12:03:31;;;;;;;8.57;7.77;;;;;;;;;;773181;180;920326;-58
2023/08/27 12:05:57;;;;;;;7.30;6.60;;;;;;;;;;776651;181;815740;-58
2023/08/27 12:08:23;;;;;;;11.33;7.30;;;;;;;;;;773174;180;919282;-61
2023/08/27 12:10:49;;;;;;;8.50;7.70;;;;;;;;;;768931;178;920272;-65
2023/08/27 12:13:15;;;;;;;8.90;6.90;;;;;;;;;;777758;178;817635;-57
2023/08/27 12:15:41;;;;;;;9.40;7.70;;;;;;;;;;772054;180;919761;-66
2023/08/27 12:18:07;;;;;;;8.60;7.70;;;;;;;;;;774334;181;919655;-65
2023/08/27 12:20:32;;;;;;;9.63;8.07;;;;;;;;;;773930;178;906092;-63
2023/08/27 12:22:58;;;;;;;10.67;8.57;;;;;;;;;;774934;181;916639;-58
2023/08/27 12:25:24;;;;;;;9.40;7.33;;;;;;;;;;774526;180;918853;-58
2023/08/27 12:27:50;;;;;;;7.27;6.30;;;;;;;;;;773710;181;919219;-59
2023/08/27 12:30:16;;;;;;;10.00;7.13;;;;;;;;;;777165;180;919710;-67
2023/08/27 12:32:42;;;;;;;8.50;7.70;;;;;;;;;;773001;180;924140;-64
2023/08/27 12:35:08;;;;;;;8.90;7.40;;;;;;;;;;768662;180;920502;-65
2023/08/27 12:37:34;;;;;;;8.27;6.97;;;;;;;;;;776329;180;920119;-57
2023/08/27 12:39:59;;;;;;;8.70;7.20;;;;;;;;;;775890;178;913214;-68
2023/08/27 12:42:25;;;;;;;8.83;7.93;;;;;;;;;;772651;179;915806;-57
2023/08/27 12:44:52;;;;;;;7.13;6.30;;;;;;;;;;774837;177;916081;-65
2023/08/27 12:47:17;;;;;;;8.00;7.20;;;;;;;;;;774695;180;918763;-59
2023/08/27 12:49:43;;;;;;;7.43;6.80;;;;;;;;;;777057;177;788081;-67
2023/08/27 12:52:09;;;;;;;7.33;6.60;;;;;;;;;;770474;177;918729;-58
2023/08/27 12:54:35;;;;;;;8.30;7.23;;;;;;;;;;772410;180;920448;-58
2023/08/27 12:57:00;;;;;;;8.35;7.55;;;;;;;;;;773747;180;921203;-59
2023/08/27 12:59:27;;;;;;;9.47;7.50;;;;;;;;;;774805;180;919447;-67
2023/08/27 13:01:53;;;;;;;8.33;7.53;;;;;;;;;;779611;180;919424;-58
2023/08/27 13:04:18;;;;;;;8.17;7.37;;;;;;;;;;775067;177;1021694;-66
2023/08/27 13:06:44;;;;;;;8.35;7.07;;;;;;;;;;775203;179;941738;-57
2023/08/27 13:09:10;;;;;;;7.70;7.00;;;;;;;;;;778179;179;924068;-58
2023/08/27 13:11:35;;;;;;;9.10;8.20;;;;;;;;;;761947;181;919022;-67
2023/08/27 13:14:01;;;;;;;8.40;7.50;;;;;;;;;;769942;181;920491;-67
2023/08/27 13:16:27;;;;;;;7.73;7.00;;;;;;;;;;771356;180;924632;-58
2023/08/27 13:18:53;;;;;;;7.43;6.73;;;;;;;;;;775012;182;631125;-65
2023/08/27 13:21:19;;;;;;;8.70;7.57;;;;;;;;;;770929;181;921203;-58
2023/08/27 13:23:45;;;;;;;9.50;7.67;;;;;;;;;;775032;180;920941;-65
2023/08/27 13:26:11;;;;;;;9.90;7.80;;;;;;;;;;779797;180;922105;-65
2023/08/27 13:28:36;;;;;;;8.20;7.40;;;;;;;;;;765651;181;918196;-66
2023/08/27 13:31:02;;;;;;;8.33;6.50;;;;;;;;;;762933;181;918851;-57
2023/08/27 13:33:28;;;;;;;8.20;7.40;;;;;;;;;;777619;180;919235;-58
2023/08/27 13:35:54;;;;;;;9.00;6.90;;;;;;;;;;773185;180;901325;-58
2023/08/27 13:38:20;;;;;;;16.63;7.53;;;;;;;;;;768099;180;910572;-57
2023/08/27 13:40:46;;;;;;;9.43;7.53;;;;;;;;;;766169;180;911640;-58
2023/08/27 13:43:11;;;;;;;6.93;6.33;;;;;;;;;;770402;181;915723;-65
2023/08/27 13:45:37;;;;;;;8.93;8.07;;;;;;;;;;770388;181;914354;-58
2023/08/27 13:48:04;;;;;;;9.13;8.10;;;;;;;;;;775131;178;879359;-58
2023/08/27 13:50:30;;;;;;;11.43;8.37;;;;;;;;;;780130;180;814527;-65
2023/08/27 13:52:55;;;;;;;9.93;8.20;;;;;;;;;;777681;178;823198;-65
2023/08/27 13:55:21;;;;;;;9.07;8.10;;;;;;;;;;772727;180;921881;-66
2023/08/27 13:57:47;;;;;;;8.40;7.40;;;;;;;;;;777610;180;1640834;-57
2023/08/27 14:00:13;;;;;;;9.10;7.70;;;;;;;;;;777141;177;924720;-59
2023/08/27 14:02:39;;;;;;;9.40;8.50;;;;;;;;;;775434;180;920212;-66
2023/08/27 14:05:06;;;;;;;7.97;7.18;;;;;;;;;;780481;180;815769;-64
2023/08/27 14:07:32;;;;;;;10.67;8.50;;;;;;;;;;775849;181;920041;-57
2023/08/27 14:09:58;;;;;;;11.67;9.30;;;;;;;;;;775454;179;918309;-57
2023/08/27 14:12:23;;;;;;;8.97;8.07;;;;;;;;;;772515;179;848642;-64
2023/08/27 14:14:49;;;;;;;10.83;8.80;;;;;;;;;;768772;180;918135;-65
2023/08/27 14:17:17;;;;;;;10.60;8.20;;;;;;;;;;768900;180;919416;-64
2023/08/27 14:19:41;;;;;;;10.20;8.57;;;;;;;;;;772376;179;923287;-64
2023/08/27 14:22:07;;;;;;;8.83;7.93;;;;;;;;;;776413;181;921571;-56